sensor_id;sensor_type;location;lat;lon;timestamp;temperature;humidity
15262;DHT22;7733;51.554;13.590;2023-07-30T00:01:58;17.80;99.90
15262;DHT22;7733;51.554;13.590;2023-07-30T00:04:25;17.80;99.90
15262;DHT22;7733;51.554;13.590;2023-07-30T00:06:50;17.70;99.90
15262;DHT22;7733;51.554;13.590;2023-07-30T00:09:16;17.70;99.90
15262;DHT22;7733;51.554;13.590;2023-07-30T00:11:42;17.60;99.90
15262;DHT22;7733;51.554;13.590;2023-07-30T00:14:07;17.70;99.90
15262;DHT22;7733;51.554;13.590;2023-07-30T00:16:33;17.60;99.90
15262;DHT22;7733;51.554;13.590;2023-07-30T00:18:59;17.60;99.90
15262;DHT22;7733;51.554;13.590;2023-07-30T00:21:25;17.50;99.90
15262;DHT22;7733;51.554;13.590;2023-07-30T00:23:50;17.60;99.90
15262;DHT22;7733;51.554;13.590;2023-07-30T00:26:16;17.60;99.90
15262;DHT22;7733;51.554;13.590;2023-07-30T00:28:42;17.60;99.90
15262;DHT22;7733;51.554;13.590;2023-07-30T00:31:08;17.50;99.90
15262;DHT22;7733;51.554;13.590;2023-07-30T00:33:33;17.50;99.90
15262;DHT22;7733;51.554;13.590;2023-07-30T00:35:59;17.50;99.90
15262;DHT22;7733;51.554;13.590;2023-07-30T00:38:25;17.50;99.90
15262;DHT22;7733;51.554;13.590;2023-07-30T00:40:50;17.50;99.90
15262;DHT22;7733;51.554;13.590;2023-07-30T00:43:16;17.50;99.90
15262;DHT22;7733;51.554;13.590;2023-07-30T00:45:44;17.60;99.90
15262;DHT22;7733;51.554;13.590;2023-07-30T00:48:11;17.40;99.90
15262;DHT22;7733;51.554;13.590;2023-07-30T00:50:39;17.30;99.90
15262;DHT22;7733;51.554;13.590;2023-07-30T00:53:07;17.30;99.90
15262;DHT22;7733;51.554;13.590;2023-07-30T00:55:34;17.30;99.90
15262;DHT22;7733;51.554;13.590;2023-07-30T00:58:01;17.30;99.90
15262;DHT22;7733;51.554;13.590;2023-07-30T01:00:28;17.40;99.90
15262;DHT22;7733;51.554;13.590;2023-07-30T01:02:55;17.50;99.90
15262;DHT22;7733;51.554;13.590;2023-07-30T01:05:21;17.50;99.90
15262;DHT22;7733;51.554;13.590;2023-07-30T01:07:47;17.40;99.90
15262;DHT22;7733;51.554;13.590;2023-07-30T01:10:13;17.40;99.90
15262;DHT22;7733;51.554;13.590;2023-07-30T01:12:41;17.40;99.90
15262;DHT22;7733;51.554;13.590;2023-07-30T01:15:09;17.50;99.90
15262;DHT22;7733;51.554;13.590;2023-07-30T01:17:36;17.60;99.90
15262;DHT22;7733;51.554;13.590;2023-07-30T01:20:02;17.50;99.90
15262;DHT22;7733;51.554;13.590;2023-07-30T01:22:28;17.50;99.90
15262;DHT22;7733;51.554;13.590;2023-07-30T01:24:54;17.40;99.90
15262;DHT22;7733;51.554;13.590;2023-07-30T01:27:30;17.30;99.90
15262;DHT22;7733;51.554;13.590;2023-07-30T01:32:49;17.40;99.90
15262;DHT22;7733;51.554;13.590;2023-07-30T01:35:16;17.20;99.90
15262;DHT22;7733;51.554;13.590;2023-07-30T01:37:46;16.90;99.90
15262;DHT22;7733;51.554;13.590;2023-07-30T01:40:13;16.80;99.90
15262;DHT22;7733;51.554;13.590;2023-07-30T01:42:39;17.00;99.90
15262;DHT22;7733;51.554;13.590;2023-07-30T01:45:06;17.10;99.90
15262;DHT22;7733;51.554;13.590;2023-07-30T01:47:32;17.10;99.90
15262;DHT22;7733;51.554;13.590;2023-07-30T01:49:58;17.10;99.90
15262;DHT22;7733;51.554;13.590;2023-07-30T01:52:23;17.10;99.90
15262;DHT22;7733;51.554;13.590;2023-07-30T01:54:49;17.20;99.90
15262;DHT22;7733;51.554;13.590;2023-07-30T01:57:15;17.20;99.90
15262;DHT22;7733;51.554;13.590;2023-07-30T01:59:41;17.10;99.90
15262;DHT22;7733;51.554;13.590;2023-07-30T02:02:06;17.20;99.90
15262;DHT22;7733;51.554;13.590;2023-07-30T02:04:33;17.10;99.90
15262;DHT22;7733;51.554;13.590;2023-07-30T02:06:59;17.10;99.90
15262;DHT22;7733;51.554;13.590;2023-07-30T02:09:24;16.90;99.90
15262;DHT22;7733;51.554;13.590;2023-07-30T02:11:50;17.00;99.90
15262;DHT22;7733;51.554;13.590;2023-07-30T02:14:18;17.10;99.90
15262;DHT22;7733;51.554;13.590;2023-07-30T02:16:44;17.10;99.90
15262;DHT22;7733;51.554;13.590;2023-07-30T02:19:09;17.10;99.90
15262;DHT22;7733;51.554;13.590;2023-07-30T02:21:35;17.10;99.90
15262;DHT22;7733;51.554;13.590;2023-07-30T02:24:04;17.00;99.90
15262;DHT22;7733;51.554;13.590;2023-07-30T02:29:16;17.10;99.90
15262;DHT22;7733;51.554;13.590;2023-07-30T02:31:42;17.20;99.90
15262;DHT22;7733;51.554;13.590;2023-07-30T02:34:07;17.20;99.90
15262;DHT22;7733;51.554;13.590;2023-07-30T02:36:33;17.20;99.90
15262;DHT22;7733;51.554;13.590;2023-07-30T02:38:59;17.10;99.90
15262;DHT22;7733;51.554;13.590;2023-07-30T02:41:24;17.10;99.90
15262;DHT22;7733;51.554;13.590;2023-07-30T02:43:50;17.10;99.90
15262;DHT22;7733;51.554;13.590;2023-07-30T02:46:16;17.00;99.90
15262;DHT22;7733;51.554;13.590;2023-07-30T02:48:41;16.90;99.90
15262;DHT22;7733;51.554;13.590;2023-07-30T02:51:07;16.80;99.90
15262;DHT22;7733;51.554;13.590;2023-07-30T02:53:33;16.90;99.90
15262;DHT22;7733;51.554;13.590;2023-07-30T02:55:58;16.70;99.90
15262;DHT22;7733;51.554;13.590;2023-07-30T02:58:24;16.70;99.90
15262;DHT22;7733;51.554;13.590;2023-07-30T03:00:50;16.70;99.90
15262;DHT22;7733;51.554;13.590;2023-07-30T03:03:16;16.60;99.90
15262;DHT22;7733;51.554;13.590;2023-07-30T03:05:42;16.70;99.90
15262;DHT22;7733;51.554;13.590;2023-07-30T03:08:08;16.70;99.90
15262;DHT22;7733;51.554;13.590;2023-07-30T03:10:36;16.70;99.90
15262;DHT22;7733;51.554;13.590;2023-07-30T03:13:02;16.70;99.90
15262;DHT22;7733;51.554;13.590;2023-07-30T03:15:28;16.80;99.90
15262;DHT22;7733;51.554;13.590;2023-07-30T03:17:53;16.70;99.90
15262;DHT22;7733;51.554;13.590;2023-07-30T03:20:19;16.60;99.90
15262;DHT22;7733;51.554;13.590;2023-07-30T03:22:45;16.60;99.90
15262;DHT22;7733;51.554;13.590;2023-07-30T03:25:10;16.40;99.90
15262;DHT22;7733;51.554;13.590;2023-07-30T03:27:36;16.40;99.90
15262;DHT22;7733;51.554;13.590;2023-07-30T03:30:02;16.60;99.90
15262;DHT22;7733;51.554;13.590;2023-07-30T03:32:28;16.70;99.90
15262;DHT22;7733;51.554;13.590;2023-07-30T03:34:53;16.70;99.90
15262;DHT22;7733;51.554;13.590;2023-07-30T03:37:19;16.80;99.90
15262;DHT22;7733;51.554;13.590;2023-07-30T03:39:45;16.80;99.90
15262;DHT22;7733;51.554;13.590;2023-07-30T03:42:11;16.80;99.90
15262;DHT22;7733;51.554;13.590;2023-07-30T03:44:36;17.00;99.90
15262;DHT22;7733;51.554;13.590;2023-07-30T03:47:02;16.90;99.90
15262;DHT22;7733;51.554;13.590;2023-07-30T03:49:28;17.00;99.90
15262;DHT22;7733;51.554;13.590;2023-07-30T03:51:54;17.00;99.90
15262;DHT22;7733;51.554;13.590;2023-07-30T03:54:19;17.00;99.90
15262;DHT22;7733;51.554;13.590;2023-07-30T03:56:45;16.80;99.90
15262;DHT22;7733;51.554;13.590;2023-07-30T03:59:10;16.80;99.90
15262;DHT22;7733;51.554;13.590;2023-07-30T04:01:36;16.90;99.90
15262;DHT22;7733;51.554;13.590;2023-07-30T04:04:02;17.00;99.90
15262;DHT22;7733;51.554;13.590;2023-07-30T04:06:28;16.90;99.90
15262;DHT22;7733;51.554;13.590;2023-07-30T04:08:53;17.10;99.90
15262;DHT22;7733;51.554;13.590;2023-07-30T04:11:19;17.10;99.90
15262;DHT22;7733;51.554;13.590;2023-07-30T04:13:45;17.00;99.90
15262;DHT22;7733;51.554;13.590;2023-07-30T04:16:10;17.10;99.90
15262;DHT22;7733;51.554;13.590;2023-07-30T04:18:36;17.20;99.90
15262;DHT22;7733;51.554;13.590;2023-07-30T04:21:02;17.30;99.90
15262;DHT22;7733;51.554;13.590;2023-07-30T04:23:27;17.40;99.90
15262;DHT22;7733;51.554;13.590;2023-07-30T04:25:53;17.30;99.90
15262;DHT22;7733;51.554;13.590;2023-07-30T04:28:19;17.30;99.90
15262;DHT22;7733;51.554;13.590;2023-07-30T04:30:44;17.40;99.90
15262;DHT22;7733;51.554;13.590;2023-07-30T04:33:12;17.40;99.90
15262;DHT22;7733;51.554;13.590;2023-07-30T04:35:39;17.40;99.90
15262;DHT22;7733;51.554;13.590;2023-07-30T04:38:05;17.30;99.90
15262;DHT22;7733;51.554;13.590;2023-07-30T04:40:31;17.20;99.90
15262;DHT22;7733;51.554;13.590;2023-07-30T04:42:57;17.20;99.90
15262;DHT22;7733;51.554;13.590;2023-07-30T04:45:22;17.30;99.90
15262;DHT22;7733;51.554;13.590;2023-07-30T04:47:48;17.40;99.90
15262;DHT22;7733;51.554;13.590;2023-07-30T04:50:14;17.50;99.90
15262;DHT22;7733;51.554;13.590;2023-07-30T04:52:40;17.60;99.90
15262;DHT22;7733;51.554;13.590;2023-07-30T04:55:06;17.70;99.90
15262;DHT22;7733;51.554;13.590;2023-07-30T04:57:32;17.70;99.90
15262;DHT22;7733;51.554;13.590;2023-07-30T04:59:57;17.70;99.90
15262;DHT22;7733;51.554;13.590;2023-07-30T05:02:23;17.70;99.90
15262;DHT22;7733;51.554;13.590;2023-07-30T05:04:49;17.70;99.90
15262;DHT22;7733;51.554;13.590;2023-07-30T05:07:15;17.60;99.90
15262;DHT22;7733;51.554;13.590;2023-07-30T05:09:40;17.70;99.90
15262;DHT22;7733;51.554;13.590;2023-07-30T05:12:06;17.70;99.90
15262;DHT22;7733;51.554;13.590;2023-07-30T05:14:32;17.60;99.90
15262;DHT22;7733;51.554;13.590;2023-07-30T05:16:58;17.80;99.90
15262;DHT22;7733;51.554;13.590;2023-07-30T05:19:23;17.90;99.90
15262;DHT22;7733;51.554;13.590;2023-07-30T05:21:49;17.90;99.90
15262;DHT22;7733;51.554;13.590;2023-07-30T05:24:15;18.00;99.90
15262;DHT22;7733;51.554;13.590;2023-07-30T05:26:41;18.00;99.90
15262;DHT22;7733;51.554;13.590;2023-07-30T05:29:06;18.00;99.90
15262;DHT22;7733;51.554;13.590;2023-07-30T05:31:32;18.10;99.90
15262;DHT22;7733;51.554;13.590;2023-07-30T05:33:58;18.10;99.90
15262;DHT22;7733;51.554;13.590;2023-07-30T05:36:23;18.00;99.90
15262;DHT22;7733;51.554;13.590;2023-07-30T05:38:49;18.00;99.90
15262;DHT22;7733;51.554;13.590;2023-07-30T05:41:15;18.10;99.90
15262;DHT22;7733;51.554;13.590;2023-07-30T05:43:41;18.00;99.90
15262;DHT22;7733;51.554;13.590;2023-07-30T05:46:07;18.00;99.90
15262;DHT22;7733;51.554;13.590;2023-07-30T05:48:33;17.80;99.90
15262;DHT22;7733;51.554;13.590;2023-07-30T05:50:59;17.70;99.90
15262;DHT22;7733;51.554;13.590;2023-07-30T05:53:25;17.70;99.90
15262;DHT22;7733;51.554;13.590;2023-07-30T05:55:50;17.80;99.90
15262;DHT22;7733;51.554;13.590;2023-07-30T05:58:16;18.00;99.90
15262;DHT22;7733;51.554;13.590;2023-07-30T06:00:42;18.10;99.90
15262;DHT22;7733;51.554;13.590;2023-07-30T06:03:08;18.20;99.90
15262;DHT22;7733;51.554;13.590;2023-07-30T06:05:41;18.30;99.90
15262;DHT22;7733;51.554;13.590;2023-07-30T06:08:08;18.40;99.90
15262;DHT22;7733;51.554;13.590;2023-07-30T06:10:37;18.50;99.90
15262;DHT22;7733;51.554;13.590;2023-07-30T06:13:06;18.30;99.90
15262;DHT22;7733;51.554;13.590;2023-07-30T06:15:33;18.30;99.90
15262;DHT22;7733;51.554;13.590;2023-07-30T06:18:00;18.40;99.90
15262;DHT22;7733;51.554;13.590;2023-07-30T06:20:27;18.40;99.90
15262;DHT22;7733;51.554;13.590;2023-07-30T06:22:53;18.50;99.90
15262;DHT22;7733;51.554;13.590;2023-07-30T06:25:19;18.60;99.90
15262;DHT22;7733;51.554;13.590;2023-07-30T06:27:45;18.80;99.90
15262;DHT22;7733;51.554;13.590;2023-07-30T06:30:11;19.00;99.90
15262;DHT22;7733;51.554;13.590;2023-07-30T06:32:37;19.00;99.90
15262;DHT22;7733;51.554;13.590;2023-07-30T06:35:03;19.00;99.90
15262;DHT22;7733;51.554;13.590;2023-07-30T06:37:29;19.00;99.90
15262;DHT22;7733;51.554;13.590;2023-07-30T06:39:55;19.30;99.90
15262;DHT22;7733;51.554;13.590;2023-07-30T06:42:20;19.40;99.90
15262;DHT22;7733;51.554;13.590;2023-07-30T06:44:46;19.40;99.90
15262;DHT22;7733;51.554;13.590;2023-07-30T06:47:12;19.20;99.90
15262;DHT22;7733;51.554;13.590;2023-07-30T06:49:37;19.30;99.90
15262;DHT22;7733;51.554;13.590;2023-07-30T06:52:03;19.20;99.90
15262;DHT22;7733;51.554;13.590;2023-07-30T06:54:29;19.20;99.90
15262;DHT22;7733;51.554;13.590;2023-07-30T06:56:55;19.20;99.90
15262;DHT22;7733;51.554;13.590;2023-07-30T06:59:21;19.20;99.90
15262;DHT22;7733;51.554;13.590;2023-07-30T07:01:46;19.30;99.90
15262;DHT22;7733;51.554;13.590;2023-07-30T07:04:12;19.30;99.90
15262;DHT22;7733;51.554;13.590;2023-07-30T07:06:38;19.40;99.90
15262;DHT22;7733;51.554;13.590;2023-07-30T07:09:03;19.50;99.90
15262;DHT22;7733;51.554;13.590;2023-07-30T07:11:29;19.60;99.90
15262;DHT22;7733;51.554;13.590;2023-07-30T07:13:55;19.70;99.90
15262;DHT22;7733;51.554;13.590;2023-07-30T07:16:20;19.70;99.90
15262;DHT22;7733;51.554;13.590;2023-07-30T07:18:46;19.70;99.90
15262;DHT22;7733;51.554;13.590;2023-07-30T07:21:14;19.70;99.90
15262;DHT22;7733;51.554;13.590;2023-07-30T07:23:40;19.90;99.90
15262;DHT22;7733;51.554;13.590;2023-07-30T07:26:06;19.90;99.90
15262;DHT22;7733;51.554;13.590;2023-07-30T07:28:31;19.90;99.90
15262;DHT22;7733;51.554;13.590;2023-07-30T07:30:57;20.00;99.90
15262;DHT22;7733;51.554;13.590;2023-07-30T07:33:23;20.20;99.90
15262;DHT22;7733;51.554;13.590;2023-07-30T07:35:48;20.20;99.90
15262;DHT22;7733;51.554;13.590;2023-07-30T07:38:14;20.20;99.90
15262;DHT22;7733;51.554;13.590;2023-07-30T07:40:40;20.40;99.90
15262;DHT22;7733;51.554;13.590;2023-07-30T07:43:09;20.40;99.90
15262;DHT22;7733;51.554;13.590;2023-07-30T07:45:35;20.60;99.90
15262;DHT22;7733;51.554;13.590;2023-07-30T07:48:01;20.40;99.90
15262;DHT22;7733;51.554;13.590;2023-07-30T07:50:27;20.50;99.90
15262;DHT22;7733;51.554;13.590;2023-07-30T07:52:52;20.70;99.90
15262;DHT22;7733;51.554;13.590;2023-07-30T07:55:18;20.70;99.90
15262;DHT22;7733;51.554;13.590;2023-07-30T07:57:44;20.80;99.90
15262;DHT22;7733;51.554;13.590;2023-07-30T08:00:10;21.00;99.90
15262;DHT22;7733;51.554;13.590;2023-07-30T08:02:36;21.00;99.90
15262;DHT22;7733;51.554;13.590;2023-07-30T08:05:02;21.10;99.90
15262;DHT22;7733;51.554;13.590;2023-07-30T08:07:28;21.20;99.90
15262;DHT22;7733;51.554;13.590;2023-07-30T08:09:54;21.40;99.90
15262;DHT22;7733;51.554;13.590;2023-07-30T08:12:20;21.50;99.90
15262;DHT22;7733;51.554;13.590;2023-07-30T08:14:46;21.60;99.90
15262;DHT22;7733;51.554;13.590;2023-07-30T08:17:11;21.60;99.90
15262;DHT22;7733;51.554;13.590;2023-07-30T08:19:38;21.50;99.90
15262;DHT22;7733;51.554;13.590;2023-07-30T08:22:04;21.40;99.90
15262;DHT22;7733;51.554;13.590;2023-07-30T08:24:29;21.50;99.90
15262;DHT22;7733;51.554;13.590;2023-07-30T08:26:55;21.90;99.90
15262;DHT22;7733;51.554;13.590;2023-07-30T08:29:21;22.20;99.90
15262;DHT22;7733;51.554;13.590;2023-07-30T08:31:47;22.20;99.90
15262;DHT22;7733;51.554;13.590;2023-07-30T08:34:13;22.20;99.90
15262;DHT22;7733;51.554;13.590;2023-07-30T08:36:39;22.20;99.90
15262;DHT22;7733;51.554;13.590;2023-07-30T08:39:04;22.30;99.90
15262;DHT22;7733;51.554;13.590;2023-07-30T08:41:30;22.20;99.90
15262;DHT22;7733;51.554;13.590;2023-07-30T08:43:56;22.10;99.90
15262;DHT22;7733;51.554;13.590;2023-07-30T08:46:22;22.10;99.90
15262;DHT22;7733;51.554;13.590;2023-07-30T08:48:48;22.30;99.90
15262;DHT22;7733;51.554;13.590;2023-07-30T08:51:14;22.30;99.90
15262;DHT22;7733;51.554;13.590;2023-07-30T08:53:42;22.30;99.90
15262;DHT22;7733;51.554;13.590;2023-07-30T08:56:09;22.50;99.90
15262;DHT22;7733;51.554;13.590;2023-07-30T08:58:36;22.70;99.90
15262;DHT22;7733;51.554;13.590;2023-07-30T09:01:09;22.70;99.90
15262;DHT22;7733;51.554;13.590;2023-07-30T09:03:38;23.10;99.90
15262;DHT22;7733;51.554;13.590;2023-07-30T09:06:08;23.30;99.90
15262;DHT22;7733;51.554;13.590;2023-07-30T09:08:34;23.40;99.90
15262;DHT22;7733;51.554;13.590;2023-07-30T09:11:10;23.80;99.90
15262;DHT22;7733;51.554;13.590;2023-07-30T09:13:38;23.70;99.90
15262;DHT22;7733;51.554;13.590;2023-07-30T09:16:08;23.70;99.90
15262;DHT22;7733;51.554;13.590;2023-07-30T09:18:40;23.50;99.90
15262;DHT22;7733;51.554;13.590;2023-07-30T09:21:06;23.90;99.90
15262;DHT22;7733;51.554;13.590;2023-07-30T09:23:32;24.10;99.90
15262;DHT22;7733;51.554;13.590;2023-07-30T09:26:04;23.90;99.90
15262;DHT22;7733;51.554;13.590;2023-07-30T09:28:33;23.70;99.90
15262;DHT22;7733;51.554;13.590;2023-07-30T09:31:03;23.60;99.90
15262;DHT22;7733;51.554;13.590;2023-07-30T09:33:31;23.80;99.90
15262;DHT22;7733;51.554;13.590;2023-07-30T09:36:01;23.80;99.90
15262;DHT22;7733;51.554;13.590;2023-07-30T09:38:27;24.00;99.90
15262;DHT22;7733;51.554;13.590;2023-07-30T09:41:01;23.90;99.90
15262;DHT22;7733;51.554;13.590;2023-07-30T09:43:34;23.80;99.90
15262;DHT22;7733;51.554;13.590;2023-07-30T09:46:07;24.10;99.90
15262;DHT22;7733;51.554;13.590;2023-07-30T09:48:34;23.80;99.90
15262;DHT22;7733;51.554;13.590;2023-07-30T09:51:02;23.90;99.90
15262;DHT22;7733;51.554;13.590;2023-07-30T09:53:32;23.90;99.90
15262;DHT22;7733;51.554;13.590;2023-07-30T09:56:03;23.70;99.90
15262;DHT22;7733;51.554;13.590;2023-07-30T09:58:31;23.80;99.90
15262;DHT22;7733;51.554;13.590;2023-07-30T10:00:58;23.70;99.90
15262;DHT22;7733;51.554;13.590;2023-07-30T10:03:27;24.20;99.90
15262;DHT22;7733;51.554;13.590;2023-07-30T10:05:57;24.50;99.90
15262;DHT22;7733;51.554;13.590;2023-07-30T10:08:31;24.70;99.90
15262;DHT22;7733;51.554;13.590;2023-07-30T10:11:04;24.50;99.90
15262;DHT22;7733;51.554;13.590;2023-07-30T10:13:33;24.30;99.90
15262;DHT22;7733;51.554;13.590;2023-07-30T10:15:59;24.20;99.90
15262;DHT22;7733;51.554;13.590;2023-07-30T10:18:53;24.70;99.90
15262;DHT22;7733;51.554;13.590;2023-07-30T10:21:25;24.60;99.90
15262;DHT22;7733;51.554;13.590;2023-07-30T10:26:27;24.80;99.90
15262;DHT22;7733;51.554;13.590;2023-07-30T10:29:14;24.70;99.90
15262;DHT22;7733;51.554;13.590;2023-07-30T10:31:53;24.70;99.90
15262;DHT22;7733;51.554;13.590;2023-07-30T10:34:21;25.30;99.90
15262;DHT22;7733;51.554;13.590;2023-07-30T10:36:50;25.50;99.90
15262;DHT22;7733;51.554;13.590;2023-07-30T10:39:21;25.70;99.90
15262;DHT22;7733;51.554;13.590;2023-07-30T10:41:55;25.00;99.90
15262;DHT22;7733;51.554;13.590;2023-07-30T10:44:26;25.50;99.90
15262;DHT22;7733;51.554;13.590;2023-07-30T10:46:55;25.30;99.80
15262;DHT22;7733;51.554;13.590;2023-07-30T10:49:21;25.30;99.30
15262;DHT22;7733;51.554;13.590;2023-07-30T10:51:48;25.30;99.00
15262;DHT22;7733;51.554;13.590;2023-07-30T10:54:14;25.30;97.30
15262;DHT22;7733;51.554;13.590;2023-07-30T10:56:42;25.40;96.20
15262;DHT22;7733;51.554;13.590;2023-07-30T10:59:08;25.70;95.80
15262;DHT22;7733;51.554;13.590;2023-07-30T11:06:38;25.20;96.40
15262;DHT22;7733;51.554;13.590;2023-07-30T11:09:04;24.90;96.30
15262;DHT22;7733;51.554;13.590;2023-07-30T11:11:31;24.50;97.40
15262;DHT22;7733;51.554;13.590;2023-07-30T11:13:57;24.80;97.90
15262;DHT22;7733;51.554;13.590;2023-07-30T11:16:24;25.00;97.00
15262;DHT22;7733;51.554;13.590;2023-07-30T11:18:50;25.00;97.00
15262;DHT22;7733;51.554;13.590;2023-07-30T11:21:17;25.40;96.40
15262;DHT22;7733;51.554;13.590;2023-07-30T11:23:45;25.60;95.20
15262;DHT22;7733;51.554;13.590;2023-07-30T11:26:19;25.40;93.60
15262;DHT22;7733;51.554;13.590;2023-07-30T11:28:45;25.30;94.20
15262;DHT22;7733;51.554;13.590;2023-07-30T11:31:19;25.40;94.00
15262;DHT22;7733;51.554;13.590;2023-07-30T11:33:48;25.50;93.50
15262;DHT22;7733;51.554;13.590;2023-07-30T11:36:16;25.40;93.80
15262;DHT22;7733;51.554;13.590;2023-07-30T11:38:45;25.60;93.70
15262;DHT22;7733;51.554;13.590;2023-07-30T11:41:12;25.70;93.50
15262;DHT22;7733;51.554;13.590;2023-07-30T11:43:42;25.70;93.30
15262;DHT22;7733;51.554;13.590;2023-07-30T11:46:16;25.80;92.70
15262;DHT22;7733;51.554;13.590;2023-07-30T11:48:45;25.60;92.10
15262;DHT22;7733;51.554;13.590;2023-07-30T11:51:24;25.20;91.70
15262;DHT22;7733;51.554;13.590;2023-07-30T11:53:53;25.20;91.20
15262;DHT22;7733;51.554;13.590;2023-07-30T11:56:24;25.30;92.50
15262;DHT22;7733;51.554;13.590;2023-07-30T11:58:55;25.70;91.90
15262;DHT22;7733;51.554;13.590;2023-07-30T12:01:24;25.80;91.20
15262;DHT22;7733;51.554;13.590;2023-07-30T12:03:54;25.60;89.00
15262;DHT22;7733;51.554;13.590;2023-07-30T12:06:37;25.50;90.80
15262;DHT22;7733;51.554;13.590;2023-07-30T12:09:18;25.30;89.50
15262;DHT22;7733;51.554;13.590;2023-07-30T12:11:52;25.20;90.20
15262;DHT22;7733;51.554;13.590;2023-07-30T12:14:22;25.10;89.50
15262;DHT22;7733;51.554;13.590;2023-07-30T12:16:55;25.00;90.60
15262;DHT22;7733;51.554;13.590;2023-07-30T12:19:21;25.30;90.00
15262;DHT22;7733;51.554;13.590;2023-07-30T12:21:47;25.60;88.50
15262;DHT22;7733;51.554;13.590;2023-07-30T12:24:13;25.80;88.60
15262;DHT22;7733;51.554;13.590;2023-07-30T12:26:38;25.60;88.50
15262;DHT22;7733;51.554;13.590;2023-07-30T12:29:04;25.80;87.10
15262;DHT22;7733;51.554;13.590;2023-07-30T12:31:30;25.60;88.70
15262;DHT22;7733;51.554;13.590;2023-07-30T12:33:56;25.50;89.30
15262;DHT22;7733;51.554;13.590;2023-07-30T12:36:21;25.80;90.00
15262;DHT22;7733;51.554;13.590;2023-07-30T12:38:47;25.60;90.40
15262;DHT22;7733;51.554;13.590;2023-07-30T12:41:13;25.60;90.00
15262;DHT22;7733;51.554;13.590;2023-07-30T12:43:39;25.70;90.50
15262;DHT22;7733;51.554;13.590;2023-07-30T12:46:04;26.10;90.40
15262;DHT22;7733;51.554;13.590;2023-07-30T12:48:30;26.30;88.50
15262;DHT22;7733;51.554;13.590;2023-07-30T12:50:56;26.30;88.60
15262;DHT22;7733;51.554;13.590;2023-07-30T12:53:21;26.30;89.10
15262;DHT22;7733;51.554;13.590;2023-07-30T12:55:47;26.60;88.50
15262;DHT22;7733;51.554;13.590;2023-07-30T12:58:13;26.20;87.80
15262;DHT22;7733;51.554;13.590;2023-07-30T13:00:38;26.00;87.90
15262;DHT22;7733;51.554;13.590;2023-07-30T13:03:04;26.30;89.00
15262;DHT22;7733;51.554;13.590;2023-07-30T13:05:30;26.30;87.90
15262;DHT22;7733;51.554;13.590;2023-07-30T13:07:56;26.10;89.20
15262;DHT22;7733;51.554;13.590;2023-07-30T13:10:21;26.30;89.10
15262;DHT22;7733;51.554;13.590;2023-07-30T13:12:47;26.60;87.20
15262;DHT22;7733;51.554;13.590;2023-07-30T13:15:13;26.60;87.70
15262;DHT22;7733;51.554;13.590;2023-07-30T13:17:39;26.50;88.70
15262;DHT22;7733;51.554;13.590;2023-07-30T13:20:06;26.60;87.20
15262;DHT22;7733;51.554;13.590;2023-07-30T13:22:32;26.50;87.70
15262;DHT22;7733;51.554;13.590;2023-07-30T13:24:57;26.40;88.10
15262;DHT22;7733;51.554;13.590;2023-07-30T13:27:23;26.50;87.70
15262;DHT22;7733;51.554;13.590;2023-07-30T13:29:49;26.40;87.90
15262;DHT22;7733;51.554;13.590;2023-07-30T13:32:15;26.50;87.00
15262;DHT22;7733;51.554;13.590;2023-07-30T13:34:41;26.30;87.10
15262;DHT22;7733;51.554;13.590;2023-07-30T13:37:06;26.20;86.80
15262;DHT22;7733;51.554;13.590;2023-07-30T13:39:32;26.20;86.90
15262;DHT22;7733;51.554;13.590;2023-07-30T13:41:58;26.40;88.30
15262;DHT22;7733;51.554;13.590;2023-07-30T13:44:24;26.40;87.30
15262;DHT22;7733;51.554;13.590;2023-07-30T13:46:49;26.00;87.10
15262;DHT22;7733;51.554;13.590;2023-07-30T13:49:16;26.10;87.00
15262;DHT22;7733;51.554;13.590;2023-07-30T13:51:41;26.00;88.30
15262;DHT22;7733;51.554;13.590;2023-07-30T13:54:07;26.10;87.50
15262;DHT22;7733;51.554;13.590;2023-07-30T13:56:34;26.10;86.70
15262;DHT22;7733;51.554;13.590;2023-07-30T13:58:59;25.90;88.70
15262;DHT22;7733;51.554;13.590;2023-07-30T14:01:25;25.70;86.60
15262;DHT22;7733;51.554;13.590;2023-07-30T14:03:51;25.90;87.80
15262;DHT22;7733;51.554;13.590;2023-07-30T14:06:17;26.20;87.80
15262;DHT22;7733;51.554;13.590;2023-07-30T14:08:43;26.20;88.30
15262;DHT22;7733;51.554;13.590;2023-07-30T14:11:08;26.00;87.50
15262;DHT22;7733;51.554;13.590;2023-07-30T14:13:34;25.80;88.90
15262;DHT22;7733;51.554;13.590;2023-07-30T14:16:00;25.60;88.90
15262;DHT22;7733;51.554;13.590;2023-07-30T14:18:26;25.30;90.10
15262;DHT22;7733;51.554;13.590;2023-07-30T14:20:51;25.30;90.80
15262;DHT22;7733;51.554;13.590;2023-07-30T14:23:18;25.10;91.00
15262;DHT22;7733;51.554;13.590;2023-07-30T14:25:44;25.00;90.30
15262;DHT22;7733;51.554;13.590;2023-07-30T14:28:10;24.90;90.50
15262;DHT22;7733;51.554;13.590;2023-07-30T14:30:35;24.80;90.80
15262;DHT22;7733;51.554;13.590;2023-07-30T14:33:03;24.70;91.20
15262;DHT22;7733;51.554;13.590;2023-07-30T14:35:29;24.50;93.00
15262;DHT22;7733;51.554;13.590;2023-07-30T14:37:55;23.60;97.10
15262;DHT22;7733;51.554;13.590;2023-07-30T14:40:21;21.50;99.90
15262;DHT22;7733;51.554;13.590;2023-07-30T14:42:48;20.30;99.90
15262;DHT22;7733;51.554;13.590;2023-07-30T14:45:13;19.60;99.90
15262;DHT22;7733;51.554;13.590;2023-07-30T14:47:39;19.20;99.90
15262;DHT22;7733;51.554;13.590;2023-07-30T14:50:06;19.20;99.90
15262;DHT22;7733;51.554;13.590;2023-07-30T14:52:32;19.50;99.90
15262;DHT22;7733;51.554;13.590;2023-07-30T14:54:57;19.70;99.90
15262;DHT22;7733;51.554;13.590;2023-07-30T14:57:23;19.70;99.90
15262;DHT22;7733;51.554;13.590;2023-07-30T14:59:49;19.80;99.90
15262;DHT22;7733;51.554;13.590;2023-07-30T15:02:15;19.80;99.90
15262;DHT22;7733;51.554;13.590;2023-07-30T15:04:41;19.90;99.90
15262;DHT22;7733;51.554;13.590;2023-07-30T15:07:06;20.00;99.90
15262;DHT22;7733;51.554;13.590;2023-07-30T15:09:34;19.90;99.90
15262;DHT22;7733;51.554;13.590;2023-07-30T15:12:01;19.90;99.90
15262;DHT22;7733;51.554;13.590;2023-07-30T15:14:27;19.90;99.90
15262;DHT22;7733;51.554;13.590;2023-07-30T15:16:53;19.90;99.90
15262;DHT22;7733;51.554;13.590;2023-07-30T15:19:19;19.80;99.90
15262;DHT22;7733;51.554;13.590;2023-07-30T15:21:45;19.80;99.90
15262;DHT22;7733;51.554;13.590;2023-07-30T15:24:11;19.80;99.90
15262;DHT22;7733;51.554;13.590;2023-07-30T15:26:36;19.90;99.90
15262;DHT22;7733;51.554;13.590;2023-07-30T15:29:02;19.70;99.90
15262;DHT22;7733;51.554;13.590;2023-07-30T15:31:29;19.60;99.90
15262;DHT22;7733;51.554;13.590;2023-07-30T15:33:55;19.80;99.90
15262;DHT22;7733;51.554;13.590;2023-07-30T15:36:22;19.70;99.90
15262;DHT22;7733;51.554;13.590;2023-07-30T15:38:48;19.70;99.90
15262;DHT22;7733;51.554;13.590;2023-07-30T15:41:22;20.00;99.90